Kaiser, MO

7:44 AM CDT on August 29, 2016 (GMT -0500)
Fine Memorial | | Change Station

Elev 869 ft 38.10 °N, 92.55 °W | Updated 48 minutes ago

Clear
Clear
69 °F
Feels Like 69 °F
N
0
Wind Variable Wind from North

Today
High -- | Low -- °F
--% Chance of Precip.
Yesterday
High -- | Low -- °F
Precip. -- in
Pressure 30.20 in
Visibility 4.0 miles
Clouds Clear
Dew Point 68 °F
Humidity 96%
Rainfall 0.00 in
Snow Depth Not available.
6:37 AM 7:43 PM
Waning Crescent, 9% visible
METAR KAIZ 291156Z AUTO 00000KT 4SM BR CLR 21/20 A3017 RMK AO2 SLP227 T02060200 10228 20206 53012
Pressure 30.20 in
Visibility 4.0 miles
Clouds Clear
Dew Point 68 °F
Humidity 96%
Rainfall 0.00 in
Snow Depth Not available.
6:37 AM 7:43 PM
Waning Crescent, 9% visible
METAR KAIZ 291156Z AUTO 00000KT 4SM BR CLR 21/20 A3017 RMK AO2 SLP227 T02060200 10228 20206 53012

10-Day Weather Forecast

Almanac

Astronomy

Aug. 29, 2016 Rise Set
Actual Time
Civil Twilight
Nautical Twilight
Astronomical Twilight
Moon
Length of Visible Light
Length of Day
Tomorrow will be .
, % of the Moon is Illuminated

Today's Extremes

State Highs State Lows

Community

WunderPhotos

Upload Photos

1,935,810 photos uploaded!

WunderBlog® & News

Nearby

Air Quality

  Air Quality AQ Index Pollutant
Not available.

Snow Depth

Station Depth Elevation

Earthquake Activity

City Distance Mag. Time & Date
Minimum magnitude displayed is 2.5.

Coastal Water Temperatures

Place Temperature

Stations

Nearby Weather Stations

Station Location Temp. Windchill Dew Point Humidity Wind Precip. Elev Updated Type
                   

Watches & Warnings

There are currently no watches in effect.